createdAt,value
2016-09-21T00:00:04.082Z,0
2016-09-21T00:01:04.057Z,0
2016-09-21T00:02:04.028Z,0
2016-09-21T00:03:04.007Z,0
2016-09-21T00:04:03.994Z,0
2016-09-21T00:05:03.971Z,0
2016-09-21T00:06:03.943Z,0
2016-09-21T00:07:03.914Z,0
2016-09-21T00:08:03.897Z,0
2016-09-21T00:09:03.873Z,0
2016-09-21T00:10:03.847Z,0
2016-09-21T00:11:03.828Z,0
2016-09-21T00:12:03.803Z,0
2016-09-21T00:13:03.781Z,0
2016-09-21T00:14:03.760Z,0
2016-09-21T00:15:03.733Z,0
2016-09-21T00:16:03.715Z,0
2016-09-21T00:17:03.991Z,0
2016-09-21T00:18:03.666Z,0
2016-09-21T00:19:03.652Z,0
2016-09-21T00:20:03.624Z,0
2016-09-21T00:21:03.608Z,0
2016-09-21T00:22:03.581Z,0
2016-09-21T00:23:03.552Z,0
2016-09-21T00:24:03.525Z,0
2016-09-21T00:25:03.508Z,0
2016-09-21T00:26:03.486Z,0
2016-09-21T00:27:03.466Z,0
2016-09-21T00:28:03.435Z,0
2016-09-21T00:29:03.440Z,0
2016-09-21T00:30:03.390Z,0
2016-09-21T00:31:03.365Z,0
2016-09-21T00:32:03.346Z,0
2016-09-21T00:33:03.324Z,0
2016-09-21T00:34:03.300Z,0
2016-09-21T00:35:03.277Z,0
2016-09-21T00:36:03.253Z,0
2016-09-21T00:37:03.237Z,0
2016-09-21T00:38:03.205Z,0
2016-09-21T00:39:03.189Z,0
2016-09-21T00:40:03.164Z,0
2016-09-21T00:41:03.140Z,0
2016-09-21T00:42:03.121Z,0
2016-09-21T00:43:03.093Z,0
2016-09-21T00:44:03.075Z,0
2016-09-21T00:45:03.048Z,0
2016-09-21T00:46:03.023Z,0
2016-09-21T00:47:03.326Z,0
2016-09-21T00:48:02.981Z,0
2016-09-21T00:49:02.950Z,0
2016-09-21T00:50:02.934Z,0
2016-09-21T00:51:02.916Z,0
2016-09-21T00:52:02.890Z,0
2016-09-21T00:53:02.872Z,0
2016-09-21T00:54:02.839Z,0
2016-09-21T00:55:02.817Z,0
2016-09-21T00:56:02.795Z,0
2016-09-21T00:57:02.767Z,0
2016-09-21T00:58:02.767Z,0
2016-09-21T00:59:02.723Z,0
2016-09-21T01:00:02.701Z,0
2016-09-21T01:01:02.676Z,0
2016-09-21T01:02:02.650Z,0
2016-09-21T01:03:02.634Z,0
2016-09-21T01:04:02.611Z,0
2016-09-21T01:05:02.587Z,0
2016-09-21T01:06:02.566Z,0
2016-09-21T01:07:02.540Z,0
2016-09-21T01:08:02.516Z,0
2016-09-21T01:09:02.493Z,0
2016-09-21T01:10:02.473Z,0
2016-09-21T01:11:02.453Z,0
2016-09-21T01:12:02.420Z,0
2016-09-21T01:13:02.402Z,0
2016-09-21T01:14:02.380Z,0
2016-09-21T01:15:02.372Z,0
2016-09-21T01:16:02.332Z,0
2016-09-21T01:17:02.311Z,0
2016-09-21T01:18:02.287Z,0
2016-09-21T01:19:02.264Z,0
2016-09-21T01:20:02.541Z,0
2016-09-21T01:21:02.219Z,0
2016-09-21T01:22:02.190Z,0
2016-09-21T01:23:02.173Z,0
2016-09-21T01:24:02.149Z,0
2016-09-21T01:25:02.128Z,0
2016-09-21T01:26:02.103Z,0
2016-09-21T01:27:02.074Z,0
2016-09-21T01:28:02.055Z,0
2016-09-21T01:29:02.035Z,0
2016-09-21T01:30:02.010Z,0
2016-09-21T01:31:02.091Z,0
2016-09-21T01:32:01.965Z,0
2016-09-21T01:33:01.944Z,0
2016-09-21T01:34:01.931Z,0
2016-09-21T01:35:01.893Z,0
2016-09-21T01:36:01.870Z,0
2016-09-21T01:37:01.846Z,0
2016-09-21T01:38:01.828Z,0
2016-09-21T01:39:01.820Z,0
2016-09-21T01:40:01.783Z,0
2016-09-21T01:41:01.755Z,0
2016-09-21T01:42:01.732Z,0
2016-09-21T01:43:01.703Z,0
2016-09-21T01:44:01.686Z,0
2016-09-21T01:45:01.666Z,0
2016-09-21T01:46:01.644Z,0
2016-09-21T01:47:01.615Z,0
2016-09-21T01:48:01.597Z,0
2016-09-21T01:49:01.572Z,0
2016-09-21T01:50:01.546Z,0
2016-09-21T01:51:01.525Z,0
2016-09-21T01:52:01.499Z,0
2016-09-21T01:53:01.478Z,0
2016-09-21T01:54:01.460Z,0
2016-09-21T01:55:01.426Z,0
2016-09-21T01:56:01.409Z,0
2016-09-21T01:57:01.382Z,0
2016-09-21T01:58:01.357Z,0
2016-09-21T01:59:01.337Z,0
2016-09-21T02:00:01.310Z,0
2016-09-21T02:01:01.583Z,0
2016-09-21T02:02:01.268Z,0
2016-09-21T02:03:01.246Z,0
2016-09-21T02:04:01.222Z,0
2016-09-21T02:05:01.194Z,0
2016-09-21T02:06:01.183Z,0
2016-09-21T02:07:01.150Z,0
2016-09-21T02:08:01.125Z,0
2016-09-21T02:09:01.104Z,0
2016-09-21T02:10:01.075Z,0
2016-09-21T02:11:01.058Z,0
2016-09-21T02:12:01.034Z,0
2016-09-21T02:13:01.035Z,0
2016-09-21T02:14:00.981Z,0
2016-09-21T02:15:00.960Z,0
2016-09-21T02:16:00.940Z,0
2016-09-21T02:17:00.948Z,0
2016-09-21T02:18:00.896Z,0
2016-09-21T02:19:00.866Z,0
2016-09-21T02:20:00.843Z,0
2016-09-21T02:21:00.823Z,0
2016-09-21T02:22:00.796Z,0
2016-09-21T02:23:00.772Z,0
2016-09-21T02:24:00.753Z,0
2016-09-21T02:25:00.729Z,0
2016-09-21T02:26:00.708Z,0
2016-09-21T02:27:00.679Z,0
2016-09-21T02:28:00.661Z,0
2016-09-21T02:29:00.933Z,0
2016-09-21T02:30:00.608Z,0
2016-09-21T02:31:00.879Z,0
2016-09-21T02:32:00.566Z,0
2016-09-21T02:33:00.536Z,0
2016-09-21T02:34:00.537Z,0
2016-09-21T02:35:00.509Z,0
2016-09-21T02:36:00.468Z,0
2016-09-21T02:37:00.444Z,0
2016-09-21T02:38:00.419Z,0
2016-09-21T02:39:00.410Z,0
2016-09-21T02:40:00.375Z,0
2016-09-21T02:41:00.352Z,0
2016-09-21T02:42:00.330Z,0
2016-09-21T02:43:00.308Z,0
2016-09-21T02:44:00.283Z,0
2016-09-21T02:45:00.261Z,0
2016-09-21T02:46:00.234Z,0
2016-09-21T02:47:00.213Z,0
2016-09-21T02:48:00.184Z,0
2016-09-21T02:49:00.162Z,0
2016-09-21T02:50:00.137Z,0
2016-09-21T02:51:00.112Z,0
2016-09-21T02:52:00.093Z,0
2016-09-21T02:53:00.067Z,0
2016-09-21T02:54:00.045Z,0
2016-09-21T02:55:00.021Z,0
2016-09-21T02:55:59.996Z,0
2016-09-21T02:56:59.974Z,0
2016-09-21T02:57:59.951Z,0
2016-09-21T02:58:59.927Z,0
2016-09-21T02:59:59.919Z,0
2016-09-21T03:00:59.875Z,0
2016-09-21T03:01:59.857Z,0
2016-09-21T03:02:59.827Z,0
2016-09-21T03:03:59.807Z,0
2016-09-21T03:04:59.787Z,0
2016-09-21T03:05:59.758Z,0
2016-09-21T03:06:59.736Z,0
2016-09-21T03:07:59.710Z,0
2016-09-21T03:08:59.692Z,0
2016-09-21T03:09:59.667Z,0
2016-09-21T03:10:59.639Z,0
2016-09-21T03:11:59.618Z,0
2016-09-21T03:12:59.592Z,0
2016-09-21T03:13:59.572Z,0
2016-09-21T03:14:59.841Z,0
2016-09-21T03:15:59.521Z,0
2016-09-21T03:16:59.501Z,0
2016-09-21T03:17:59.474Z,0
2016-09-21T03:18:59.451Z,0
2016-09-21T03:19:59.429Z,0
2016-09-21T03:20:59.400Z,0
2016-09-21T03:21:59.380Z,0
2016-09-21T03:22:59.361Z,0
2016-09-21T03:23:59.333Z,0
2016-09-21T03:24:59.319Z,0
2016-09-21T03:25:59.281Z,0
2016-09-21T03:26:59.258Z,0
2016-09-21T03:27:59.260Z,0
2016-09-21T03:28:59.514Z,0
2016-09-21T03:29:59.192Z,0
2016-09-21T03:30:59.162Z,0
2016-09-21T03:31:59.139Z,0
2016-09-21T03:32:59.117Z,0
2016-09-21T03:33:59.090Z,0
2016-09-21T03:34:59.071Z,0
2016-09-21T03:35:59.044Z,0
2016-09-21T03:36:59.018Z,0
2016-09-21T03:37:59.288Z,0
2016-09-21T03:38:58.969Z,0
2016-09-21T03:39:58.942Z,0
2016-09-21T03:40:58.922Z,0
2016-09-21T03:41:58.902Z,0
2016-09-21T03:42:58.865Z,0
2016-09-21T03:43:58.849Z,0
2016-09-21T03:44:58.860Z,0
2016-09-21T03:45:58.794Z,0
2016-09-21T03:46:58.769Z,0
2016-09-21T03:47:58.746Z,0
2016-09-21T03:48:58.725Z,0
2016-09-21T03:49:58.700Z,0
2016-09-21T03:50:58.674Z,0
2016-09-21T03:51:58.647Z,0
2016-09-21T03:52:58.617Z,0
2016-09-21T03:53:58.598Z,0
2016-09-21T03:54:58.571Z,0
2016-09-21T03:55:58.548Z,0
2016-09-21T03:56:58.529Z,0
2016-09-21T03:57:58.499Z,0
2016-09-21T03:58:58.475Z,0
2016-09-21T03:59:58.443Z,0
2016-09-21T04:00:58.423Z,0
2016-09-21T04:01:58.396Z,0
2016-09-21T04:02:58.371Z,0
2016-09-21T04:03:58.344Z,0
2016-09-21T04:04:58.319Z,0
2016-09-21T04:05:58.299Z,0
2016-09-21T04:06:58.276Z,0
2016-09-21T04:07:58.247Z,0
2016-09-21T04:08:58.955Z,0
2016-09-21T04:09:58.196Z,0
2016-09-21T04:10:58.171Z,0
2016-09-21T04:11:58.143Z,0
2016-09-21T04:12:58.118Z,0
2016-09-21T04:13:58.092Z,0
2016-09-21T04:14:58.070Z,0
2016-09-21T04:15:58.043Z,0
2016-09-21T04:16:58.013Z,0
2016-09-21T04:17:57.995Z,0
2016-09-21T04:18:57.965Z,0
2016-09-21T04:19:57.943Z,0
2016-09-21T04:20:57.926Z,0
2016-09-21T04:21:57.890Z,0
2016-09-21T04:22:57.865Z,0
2016-09-21T04:23:57.836Z,0
2016-09-21T04:24:57.816Z,0
2016-09-21T04:25:57.791Z,0
2016-09-21T04:26:57.764Z,0
2016-09-21T04:27:57.739Z,0
2016-09-21T04:28:57.708Z,0
2016-09-21T04:29:57.683Z,0
2016-09-21T04:30:57.666Z,0
2016-09-21T04:31:57.927Z,0
2016-09-21T04:32:57.633Z,0
2016-09-21T04:33:57.581Z,0
2016-09-21T04:34:57.564Z,0
2016-09-21T04:35:57.525Z,0
2016-09-21T04:36:57.509Z,0
2016-09-21T04:37:57.478Z,0
2016-09-21T04:38:57.463Z,4
2016-09-21T04:39:57.428Z,4
2016-09-21T04:40:57.404Z,0
2016-09-21T04:41:57.384Z,4
2016-09-21T04:42:57.346Z,4
2016-09-21T04:43:57.325Z,4
2016-09-21T04:44:57.298Z,4
2016-09-21T04:45:57.271Z,4
2016-09-21T04:46:57.247Z,4
2016-09-21T04:47:57.217Z,8
2016-09-21T04:48:57.209Z,12
2016-09-21T04:49:57.165Z,8
2016-09-21T04:50:57.140Z,12
2016-09-21T04:51:57.117Z,16
2016-09-21T04:52:57.096Z,16
2016-09-21T04:53:57.067Z,20
2016-09-21T04:54:57.036Z,24
2016-09-21T04:55:57.309Z,32
2016-09-21T04:56:56.990Z,40
2016-09-21T04:57:56.959Z,44
2016-09-21T04:58:56.941Z,52
2016-09-21T04:59:56.909Z,64
2016-09-21T05:00:56.899Z,80
2016-09-21T05:01:56.856Z,88
2016-09-21T05:02:56.836Z,108
2016-09-21T05:03:56.814Z,128
2016-09-21T05:04:56.778Z,148
2016-09-21T05:05:56.781Z,172
2016-09-21T05:06:56.723Z,196
2016-09-21T05:07:56.700Z,216
2016-09-21T05:08:56.676Z,240
2016-09-21T05:09:56.652Z,260
2016-09-21T05:10:56.627Z,284
2016-09-21T05:11:56.602Z,304
2016-09-21T05:12:56.573Z,332
2016-09-21T05:13:56.547Z,360
2016-09-21T05:14:56.525Z,388
2016-09-21T05:15:56.493Z,420
2016-09-21T05:16:56.468Z,456
2016-09-21T05:17:56.443Z,496
2016-09-21T05:18:56.411Z,532
2016-09-21T05:19:56.691Z,576
2016-09-21T05:20:56.361Z,620
2016-09-21T05:21:56.341Z,668
2016-09-21T05:22:56.310Z,724
2016-09-21T05:23:56.288Z,784
2016-09-21T05:24:56.266Z,844
2016-09-21T05:25:56.235Z,908
2016-09-21T05:26:56.214Z,976
2016-09-21T05:27:56.195Z,1044
2016-09-21T05:28:56.158Z,1112
2016-09-21T05:29:56.141Z,1184
2016-09-21T05:30:56.101Z,1260
2016-09-21T05:31:56.077Z,1336
2016-09-21T05:32:56.063Z,1400
2016-09-21T05:33:56.027Z,1464
2016-09-21T05:34:55.996Z,1532
2016-09-21T05:35:55.975Z,1588
2016-09-21T05:36:55.948Z,1652
2016-09-21T05:37:55.923Z,1712
2016-09-21T05:38:55.902Z,1764
2016-09-21T05:39:55.871Z,1808
2016-09-21T05:40:55.841Z,1840
2016-09-21T05:41:55.818Z,1864
2016-09-21T05:42:55.786Z,1896
2016-09-21T05:43:55.766Z,1924
2016-09-21T05:44:55.765Z,1956
2016-09-21T05:45:55.708Z,1992
2016-09-21T05:46:55.684Z,2040
2016-09-21T05:47:55.667Z,2100
2016-09-21T05:48:55.636Z,2168
2016-09-21T05:49:55.606Z,2244
2016-09-21T05:50:55.891Z,2324
2016-09-21T05:51:55.558Z,2400
2016-09-21T05:52:55.530Z,2480
2016-09-21T05:53:55.519Z,2556
2016-09-21T05:54:55.478Z,2628
2016-09-21T05:55:55.453Z,2692
2016-09-21T05:56:55.427Z,2752
2016-09-21T05:57:55.400Z,2808
2016-09-21T05:58:55.408Z,2864
2016-09-21T05:59:55.441Z,2912
2016-09-21T06:00:55.325Z,2968
2016-09-21T06:01:55.296Z,3020
2016-09-21T06:02:55.271Z,3064
2016-09-21T06:03:55.249Z,3112
2016-09-21T06:04:56.225Z,3160
2016-09-21T06:05:55.189Z,3212
2016-09-21T06:06:55.165Z,3268
2016-09-21T06:07:55.157Z,3320
2016-09-21T06:08:55.111Z,3376
2016-09-21T06:09:55.086Z,3436
2016-09-21T06:10:55.058Z,3488
2016-09-21T06:11:55.036Z,3536
2016-09-21T06:12:55.010Z,3588
2016-09-21T06:13:54.993Z,3644
2016-09-21T06:14:54.962Z,3696
2016-09-21T06:15:54.937Z,3756
2016-09-21T06:16:54.906Z,3804
2016-09-21T06:17:54.876Z,3860
2016-09-21T06:18:54.853Z,3912
2016-09-21T06:19:54.828Z,3964
2016-09-21T06:20:54.803Z,4012
2016-09-21T06:21:54.778Z,4060
2016-09-21T06:22:54.749Z,4104
2016-09-21T06:23:54.729Z,4144
2016-09-21T06:24:54.696Z,4184
2016-09-21T06:25:54.676Z,4228
2016-09-21T06:26:54.649Z,4264
2016-09-21T06:27:54.625Z,4304
2016-09-21T06:28:54.600Z,4340
2016-09-21T06:29:54.575Z,4372
2016-09-21T06:30:54.547Z,4404
2016-09-21T06:31:54.525Z,4436
2016-09-21T06:32:54.494Z,4468
2016-09-21T06:33:54.467Z,4496
2016-09-21T06:34:54.445Z,4528
2016-09-21T06:35:54.434Z,4556
2016-09-21T06:36:54.394Z,4584
2016-09-21T06:37:54.367Z,4616
2016-09-21T06:38:54.346Z,4640
2016-09-21T06:39:54.317Z,4664
2016-09-21T06:40:54.295Z,4684
2016-09-21T06:41:54.265Z,4700
2016-09-21T06:42:54.241Z,4728
2016-09-21T06:43:54.213Z,4756
2016-09-21T06:44:54.192Z,4776
2016-09-21T06:45:54.165Z,4788
2016-09-21T06:46:54.138Z,4804
2016-09-21T06:47:54.135Z,4820
2016-09-21T06:48:54.090Z,4828
2016-09-21T06:49:54.064Z,4844
2016-09-21T06:50:54.039Z,4852
2016-09-21T06:51:54.010Z,4872
2016-09-21T06:52:53.987Z,4892
2016-09-21T06:53:53.960Z,4916
2016-09-21T06:54:53.929Z,4936
2016-09-21T06:55:53.911Z,4956
2016-09-21T06:56:53.885Z,4984
2016-09-21T06:57:53.862Z,5012
2016-09-21T06:58:53.845Z,5036
2016-09-21T06:59:53.992Z,5060
2016-09-21T07:00:53.872Z,5084
2016-09-21T07:01:53.758Z,5104
2016-09-21T07:02:53.768Z,5128
2016-09-21T07:03:54.385Z,5160
2016-09-21T07:04:53.771Z,5188
2016-09-21T07:05:53.767Z,5220
2016-09-21T07:06:53.630Z,5256
2016-09-21T07:07:53.614Z,5300
2016-09-21T07:08:53.582Z,5340
2016-09-21T07:09:53.561Z,5368
2016-09-21T07:10:53.534Z,5404
2016-09-21T07:11:53.504Z,5436
2016-09-21T07:12:53.486Z,5456
2016-09-21T07:13:53.460Z,5452
2016-09-21T07:14:53.495Z,5468
2016-09-21T07:15:53.413Z,5528
2016-09-21T07:16:53.740Z,5588
2016-09-21T07:17:53.447Z,5628
2016-09-21T07:18:53.335Z,5664
2016-09-21T07:19:53.346Z,5696
2016-09-21T07:20:53.297Z,5732
2016-09-21T07:21:53.295Z,5784
2016-09-21T07:22:53.281Z,5840
2016-09-21T07:23:53.528Z,5900
2016-09-21T07:24:53.247Z,5976
2016-09-21T07:25:53.548Z,6052
2016-09-21T07:26:53.148Z,6100
2016-09-21T07:27:53.138Z,6140
2016-09-21T07:28:53.761Z,6224
2016-09-21T07:29:53.455Z,6308
2016-09-21T07:30:53.042Z,6404
2016-09-21T07:31:53.018Z,6492
2016-09-21T07:32:53.087Z,6592
2016-09-21T07:33:52.964Z,6680
2016-09-21T07:34:53.190Z,6744
2016-09-21T07:35:52.950Z,6804
2016-09-21T07:36:52.894Z,6872
2016-09-21T07:37:52.869Z,6976
2016-09-21T07:38:52.867Z,7076
2016-09-21T07:39:53.108Z,7176
2016-09-21T07:40:52.796Z,7260
2016-09-21T07:41:52.792Z,7312
2016-09-21T07:42:53.052Z,7336
2016-09-21T07:43:52.726Z,7384
2016-09-21T07:44:52.693Z,7416
2016-09-21T07:45:52.673Z,7432
2016-09-21T07:46:52.644Z,7444
2016-09-21T07:47:52.630Z,7440
2016-09-21T07:48:52.601Z,7424
2016-09-21T07:49:52.578Z,7372
2016-09-21T07:50:53.148Z,7268
2016-09-21T07:51:52.931Z,7196
2016-09-21T07:52:52.925Z,7164
2016-09-21T07:53:52.564Z,7160
2016-09-21T07:54:52.836Z,7184
2016-09-21T07:55:52.487Z,7212
2016-09-21T07:56:52.412Z,7268
2016-09-21T07:57:52.468Z,7456
2016-09-21T07:58:52.372Z,7580
2016-09-21T07:59:52.369Z,7708
2016-09-21T08:00:52.324Z,7836
2016-09-21T08:01:52.292Z,7944
2016-09-21T08:02:52.298Z,8028
2016-09-21T08:03:52.259Z,8108
2016-09-21T08:04:52.584Z,8200
2016-09-21T08:05:52.197Z,8244
2016-09-21T08:06:52.177Z,8304
2016-09-21T08:07:52.152Z,8356
2016-09-21T08:08:52.131Z,8344
2016-09-21T08:09:52.108Z,8404
2016-09-21T08:10:52.126Z,8448
2016-09-21T08:11:52.085Z,8468
2016-09-21T08:12:52.097Z,8432
2016-09-21T08:13:52.076Z,8432
2016-09-21T08:14:52.349Z,8524
2016-09-21T08:15:52.279Z,8616
2016-09-21T08:16:51.996Z,8656
2016-09-21T08:17:51.954Z,8632
2016-09-21T08:18:51.902Z,8644
2016-09-21T08:19:51.881Z,8628
2016-09-21T08:20:51.885Z,8620
2016-09-21T08:21:51.865Z,8600
2016-09-21T08:22:51.837Z,8588
2016-09-21T08:23:52.419Z,8572
2016-09-21T08:24:51.769Z,8564
2016-09-21T08:25:51.745Z,8600
2016-09-21T08:26:51.753Z,8604
2016-09-21T08:27:51.795Z,8668
2016-09-21T08:28:51.731Z,8736
2016-09-21T08:29:51.652Z,8772
2016-09-21T08:30:51.738Z,8824
2016-09-21T08:31:51.671Z,8880
2016-09-21T08:32:51.614Z,8932
2016-09-21T08:33:51.569Z,9016
2016-09-21T08:34:51.632Z,9044
2016-09-21T08:35:51.522Z,9044
2016-09-21T08:36:51.506Z,9104
2016-09-21T08:37:51.508Z,9184
2016-09-21T08:38:51.492Z,9244
2016-09-21T08:39:51.469Z,9300
2016-09-21T08:40:51.769Z,9344
2016-09-21T08:41:51.472Z,9384
2016-09-21T08:42:51.379Z,9420
2016-09-21T08:43:51.474Z,9468
2016-09-21T08:44:51.338Z,9520
2016-09-21T08:45:51.686Z,9568
2016-09-21T08:46:51.360Z,9592
2016-09-21T08:47:51.302Z,9608
2016-09-21T08:48:51.323Z,9616
2016-09-21T08:49:51.353Z,9640
2016-09-21T08:50:51.265Z,9668
2016-09-21T08:51:51.182Z,9672
2016-09-21T08:52:51.214Z,9668
2016-09-21T08:53:51.148Z,9656
2016-09-21T08:54:51.199Z,9648
2016-09-21T08:55:51.137Z,9644
2016-09-21T08:56:51.438Z,9628
2016-09-21T08:57:51.147Z,9628
2016-09-21T08:58:51.674Z,9624
2016-09-21T08:59:51.061Z,9620
2016-09-21T09:00:51.041Z,9640
2016-09-21T09:01:51.001Z,9656
2016-09-21T09:02:51.334Z,9668
2016-09-21T09:03:51.305Z,9656
2016-09-21T09:04:50.943Z,9644
2016-09-21T09:05:50.897Z,9620
2016-09-21T09:06:50.873Z,9604
2016-09-21T09:07:50.859Z,9576
2016-09-21T09:08:50.837Z,9544
2016-09-21T09:09:50.813Z,9528
2016-09-21T09:10:50.796Z,9508
2016-09-21T09:11:50.770Z,9492
2016-09-21T09:12:50.755Z,9496
2016-09-21T09:13:50.732Z,9476
2016-09-21T09:14:50.712Z,9476
2016-09-21T09:15:50.694Z,9468
2016-09-21T09:16:50.976Z,9484
2016-09-21T09:17:50.657Z,9500
2016-09-21T09:18:50.634Z,9520
2016-09-21T09:19:50.614Z,9544
2016-09-21T09:20:50.591Z,9580
2016-09-21T09:21:50.574Z,9608
2016-09-21T09:22:50.555Z,9624
2016-09-21T09:23:50.538Z,9628
2016-09-21T09:24:50.510Z,9612
2016-09-21T09:25:50.499Z,9600
2016-09-21T09:26:50.498Z,9588
2016-09-21T09:27:50.453Z,9552
2016-09-21T09:28:50.437Z,9540
2016-09-21T09:29:50.425Z,9516
2016-09-21T09:30:50.397Z,9480
2016-09-21T09:31:50.381Z,9448
2016-09-21T09:32:50.352Z,9408
2016-09-21T09:33:50.350Z,9364
2016-09-21T09:34:50.323Z,9308
2016-09-21T09:35:50.306Z,9304
2016-09-21T09:36:50.285Z,9320
2016-09-21T09:37:50.324Z,9348
2016-09-21T09:38:50.256Z,9344
2016-09-21T09:39:50.234Z,9336
2016-09-21T09:40:50.317Z,9376
2016-09-21T09:41:50.287Z,9404
2016-09-21T09:42:50.517Z,9416
2016-09-21T09:43:50.140Z,9432
2016-09-21T09:44:50.123Z,9444
2016-09-21T09:45:50.105Z,9464
2016-09-21T09:46:50.087Z,9472
2016-09-21T09:47:51.032Z,9468
2016-09-21T09:48:51.003Z,9464
2016-09-21T09:49:50.756Z,9484
2016-09-21T09:50:50.322Z,9480
2016-09-21T09:51:50.046Z,9456
2016-09-21T09:52:50.041Z,9400
2016-09-21T09:53:49.969Z,9376
2016-09-21T09:54:50.346Z,9320
2016-09-21T09:55:49.965Z,9288
2016-09-21T09:56:49.905Z,9272
2016-09-21T09:57:49.884Z,9248
2016-09-21T09:58:49.916Z,9196
2016-09-21T09:59:49.861Z,9132
2016-09-21T10:00:49.836Z,9076
2016-09-21T10:01:49.792Z,9024
2016-09-21T10:02:49.778Z,8980
2016-09-21T10:03:49.764Z,8944
2016-09-21T10:04:49.738Z,8876
2016-09-21T10:05:50.073Z,8808
2016-09-21T10:06:49.757Z,8724
2016-09-21T10:07:49.675Z,8684
2016-09-21T10:08:49.693Z,8664
2016-09-21T10:09:49.688Z,8648
2016-09-21T10:10:49.619Z,8572
2016-09-21T10:11:49.655Z,8540
2016-09-21T10:12:49.583Z,8512
2016-09-21T10:13:49.578Z,8488
2016-09-21T10:14:49.543Z,8432
2016-09-21T10:15:49.529Z,8396
2016-09-21T10:16:49.509Z,8340
2016-09-21T10:17:49.482Z,8292
2016-09-21T10:18:49.470Z,8268
2016-09-21T10:19:49.445Z,8240
2016-09-21T10:20:49.436Z,8200
2016-09-21T10:21:49.405Z,8244
2016-09-21T10:22:49.391Z,8312
2016-09-21T10:23:49.378Z,8332
2016-09-21T10:24:49.353Z,8340
2016-09-21T10:25:49.332Z,8344
2016-09-21T10:26:49.315Z,8340
2016-09-21T10:27:49.292Z,8308
2016-09-21T10:28:49.282Z,8264
2016-09-21T10:29:49.256Z,8224
2016-09-21T10:30:49.238Z,8196
2016-09-21T10:31:49.215Z,8176
2016-09-21T10:32:49.201Z,8160
2016-09-21T10:33:49.186Z,8144
2016-09-21T10:34:49.163Z,8112
2016-09-21T10:35:49.144Z,8096
2016-09-21T10:36:49.129Z,8088
2016-09-21T10:37:49.108Z,8068
2016-09-21T10:38:49.091Z,8036
2016-09-21T10:39:49.068Z,8004
2016-09-21T10:40:49.045Z,7964
2016-09-21T10:41:49.028Z,7944
2016-09-21T10:42:49.016Z,7932
2016-09-21T10:43:48.990Z,7912
2016-09-21T10:44:48.974Z,7916
2016-09-21T10:45:48.955Z,7924
2016-09-21T10:46:48.936Z,7924
2016-09-21T10:47:48.914Z,7916
2016-09-21T10:48:48.902Z,7900
2016-09-21T10:49:48.879Z,7876
2016-09-21T10:50:48.855Z,7872
2016-09-21T10:51:48.847Z,7852
2016-09-21T10:52:48.826Z,7820
2016-09-21T10:53:48.801Z,7848
2016-09-21T10:54:48.782Z,7872
2016-09-21T10:55:48.765Z,7936
2016-09-21T10:56:48.752Z,8012
2016-09-21T10:57:48.725Z,8044
2016-09-21T10:58:48.706Z,8056
2016-09-21T10:59:48.695Z,8072
2016-09-21T11:00:48.671Z,8072
2016-09-21T11:01:48.653Z,8060
2016-09-21T11:02:48.639Z,8024
2016-09-21T11:03:48.616Z,8004
2016-09-21T11:04:48.597Z,7972
2016-09-21T11:05:49.201Z,7964
2016-09-21T11:06:48.679Z,7948
2016-09-21T11:07:48.537Z,7928
2016-09-21T11:08:48.524Z,7928
2016-09-21T11:09:48.602Z,7916
2016-09-21T11:10:48.479Z,7916
2016-09-21T11:11:48.467Z,7972
2016-09-21T11:12:48.452Z,8008
2016-09-21T11:13:48.429Z,8044
2016-09-21T11:14:48.426Z,8056
2016-09-21T11:15:48.388Z,8040
2016-09-21T11:16:48.375Z,8052
2016-09-21T11:17:48.359Z,8060
2016-09-21T11:18:48.333Z,8056
2016-09-21T11:19:48.317Z,8056
2016-09-21T11:20:48.297Z,8072
2016-09-21T11:21:48.280Z,8092
2016-09-21T11:22:48.393Z,8112
2016-09-21T11:23:48.241Z,8124
2016-09-21T11:24:48.225Z,8140
2016-09-21T11:25:48.205Z,8140
2016-09-21T11:26:48.185Z,8120
2016-09-21T11:27:48.164Z,8120
2016-09-21T11:28:48.149Z,8108
2016-09-21T11:29:48.124Z,8128
2016-09-21T11:30:48.114Z,8152
2016-09-21T11:31:48.091Z,8184
2016-09-21T11:32:48.072Z,8224
2016-09-21T11:33:48.409Z,8252
2016-09-21T11:34:48.033Z,8280
2016-09-21T11:35:48.017Z,8312
2016-09-21T11:36:48.000Z,8320
2016-09-21T11:37:47.982Z,8304
2016-09-21T11:38:47.957Z,8308
2016-09-21T11:39:47.942Z,8324
2016-09-21T11:40:47.922Z,8340
2016-09-21T11:41:47.907Z,8344
2016-09-21T11:42:47.906Z,8332
2016-09-21T11:43:48.158Z,8324
2016-09-21T11:44:47.852Z,8328
2016-09-21T11:45:47.834Z,8340
2016-09-21T11:46:48.133Z,8368
2016-09-21T11:47:47.797Z,8416
2016-09-21T11:48:47.785Z,8440
2016-09-21T11:49:47.762Z,8484
2016-09-21T11:50:47.741Z,8480
2016-09-21T11:51:47.723Z,8496
2016-09-21T11:52:47.711Z,8544
2016-09-21T11:53:47.687Z,8588
2016-09-21T11:54:47.666Z,8652
2016-09-21T11:55:47.666Z,8652
2016-09-21T11:56:47.633Z,8620
2016-09-21T11:57:47.615Z,8636
2016-09-21T11:58:47.592Z,8692
2016-09-21T11:59:47.576Z,8756
2016-09-21T12:00:47.560Z,8792
2016-09-21T12:01:47.545Z,8828
2016-09-21T12:02:47.844Z,8908
2016-09-21T12:03:47.803Z,9200
2016-09-21T12:04:47.486Z,9544
2016-09-21T12:05:47.472Z,9772
2016-09-21T12:06:47.453Z,9692
2016-09-21T12:07:47.439Z,9676
2016-09-21T12:08:47.416Z,9740
2016-09-21T12:09:47.401Z,9688
2016-09-21T12:10:47.374Z,9504
2016-09-21T12:11:47.364Z,9440
2016-09-21T12:12:47.343Z,9360
2016-09-21T12:13:47.325Z,9396
2016-09-21T12:14:47.307Z,9316
2016-09-21T12:15:47.285Z,9232
2016-09-21T12:16:47.270Z,9316
2016-09-21T12:17:47.255Z,9344
2016-09-21T12:18:47.231Z,9624
2016-09-21T12:19:47.216Z,9716
2016-09-21T12:20:47.201Z,10008
2016-09-21T12:21:47.188Z,10104
2016-09-21T12:22:47.163Z,10124
2016-09-21T12:23:47.144Z,10060
2016-09-21T12:24:47.127Z,9900
2016-09-21T12:25:47.110Z,9812
2016-09-21T12:26:47.095Z,9868
2016-09-21T12:27:47.074Z,10088
2016-09-21T12:28:47.057Z,10248
2016-09-21T12:29:47.038Z,10388
2016-09-21T12:30:47.028Z,10476
2016-09-21T12:31:47.001Z,10356
2016-09-21T12:32:46.988Z,10188
2016-09-21T12:33:46.970Z,10024
2016-09-21T12:34:46.958Z,9976
2016-09-21T12:35:46.945Z,9940
2016-09-21T12:36:46.923Z,10620
2016-09-21T12:37:46.898Z,10184
2016-09-21T12:38:46.883Z,10016
2016-09-21T12:39:46.865Z,9876
2016-09-21T12:40:46.847Z,10264
2016-09-21T12:41:47.132Z,10424
2016-09-21T12:42:46.810Z,10336
2016-09-21T12:43:47.210Z,10396
2016-09-21T12:44:46.779Z,10556
2016-09-21T12:45:47.385Z,10552
2016-09-21T12:46:46.739Z,10452
2016-09-21T12:47:46.725Z,10384
2016-09-21T12:48:46.706Z,10540
2016-09-21T12:49:46.689Z,10908
2016-09-21T12:50:46.671Z,11340
2016-09-21T12:51:47.108Z,11832
2016-09-21T12:52:46.637Z,12084
2016-09-21T12:53:46.625Z,12012
2016-09-21T12:54:46.613Z,11824
2016-09-21T12:55:46.582Z,11948
2016-09-21T12:56:46.565Z,12164
2016-09-21T12:57:46.551Z,11944
2016-09-21T12:58:46.536Z,11916
2016-09-21T12:59:46.516Z,12032
2016-09-21T13:00:46.505Z,11884
2016-09-21T13:01:46.482Z,11852
2016-09-21T13:02:46.779Z,12036
2016-09-21T13:03:46.447Z,12128
2016-09-21T13:04:46.449Z,11908
2016-09-21T13:05:46.420Z,11928
2016-09-21T13:06:46.398Z,11892
2016-09-21T13:07:46.417Z,12036
2016-09-21T13:08:46.372Z,12032
2016-09-21T13:09:46.348Z,11892
2016-09-21T13:10:46.332Z,11712
2016-09-21T13:11:46.694Z,11612
2016-09-21T13:12:46.299Z,11604
2016-09-21T13:13:46.487Z,11660
2016-09-21T13:14:46.265Z,11968
2016-09-21T13:15:46.246Z,12060
2016-09-21T13:16:46.230Z,12164
2016-09-21T13:17:46.210Z,12024
2016-09-21T13:18:46.203Z,11704
2016-09-21T13:19:46.184Z,11556
2016-09-21T13:20:46.165Z,11404
2016-09-21T13:21:46.165Z,11352
2016-09-21T13:22:46.136Z,11684
2016-09-21T13:23:46.115Z,11852
2016-09-21T13:24:46.100Z,11680
2016-09-21T13:25:46.083Z,11248
2016-09-21T13:26:46.069Z,10868
2016-09-21T13:27:46.046Z,10572
2016-09-21T13:28:46.033Z,10384
2016-09-21T13:29:46.019Z,10204
2016-09-21T13:30:46.009Z,10184
2016-09-21T13:31:45.985Z,10148
2016-09-21T13:32:45.961Z,10064
2016-09-21T13:33:45.945Z,9960
2016-09-21T13:34:45.944Z,9932
2016-09-21T13:35:45.918Z,10048
2016-09-21T13:36:45.901Z,10064
2016-09-21T13:37:45.895Z,10096
2016-09-21T13:38:45.865Z,10092
2016-09-21T13:39:45.841Z,10108
2016-09-21T13:40:45.829Z,10140
2016-09-21T13:41:45.811Z,10240
2016-09-21T13:42:45.814Z,10412
2016-09-21T13:43:46.088Z,10560
2016-09-21T13:44:45.762Z,10672
2016-09-21T13:45:45.760Z,10728